Aérodrome :
LOGIN :

S'inscrire | Disclaimer

   EN    FR    IT 

 










Légende :    VFR   VFR Marginal   IFR   IFR Intensif   IFR Très Intensif
Visi : 
Plafond : 
>= 8 km
>= 3000ft
5 à 8 km
1000 à 3000 ft
1500m à 5 km
500 à 1000 ft
800 à 1500m
200 à 500 ft
< 800m
< 200 ft
Symboles :   Orages  Brouillard  Fortes neiges  Fortes précipitations  Vent > 20 kt
SIGMETs :   Divers  Orages  Givrage  Turbulence  Onde Orograph.  Cendres Volcan.






- Altitude de l'aérodrome : 863 ft
- Code IATA : ZAZ


LEZG - Zaragoza Aragon

DERNIER METAR :
  • 060930Z 29003KT 210V330 9999 FEW045 09/07 Q1025

METARs EXPIRÉS :
  • 060900Z 31004KT 280V340 9999 FEW045 09/07 Q1025
  • 060830Z 26005KT 9999 SCT045 08/07 Q1025
  • 060800Z 29004KT 240V310 9999 BKN045 08/07 Q1025
  • 060730Z 28004KT 9999 OVC045 08/07 Q1024

TAF TAF LEZG
Valide du 06 à 06h jusqu'au 07 à 06h UTC


060500Z 0606/0706 29008KT 9999 BKN050 TX13/0613Z TN05/0706Z
BECMG 0611/0613 09008KT
BECMG 0618/0620 27008KT



MET'MAP, la Météo Aéronautique d'un coup d'oeil ! - Copyright ORBIFLY Décembre 2007 - Disclaimer

ORBIFLY MET'MAP TEAM :

Programmation & Développement : Alexandra Zaïnal
Sur une idée originale de : Baudouin d'Aumeries
Assistance à la programmation : Marc-Olivier Méhu
Soutien technique & logistique : Manuel Goepfert

Contact : metmap@orbifly.com




SOURCES & CREDITS :

   NOAA